sensor_id;sensor_type;location;lat;lon;timestamp;temperature;humidity
12967;DHT22;6548;49.996;8.238;2023-12-20T00:02:18;5.10;99.90
12967;DHT22;6548;49.996;8.238;2023-12-20T00:04:43;5.10;99.90
12967;DHT22;6548;49.996;8.238;2023-12-20T00:07:09;5.10;99.90
12967;DHT22;6548;49.996;8.238;2023-12-20T00:09:37;5.10;99.90
12967;DHT22;6548;49.996;8.238;2023-12-20T00:12:03;5.10;99.90
12967;DHT22;6548;49.996;8.238;2023-12-20T00:14:28;5.10;99.90
12967;DHT22;6548;49.996;8.238;2023-12-20T00:16:54;5.10;99.90
12967;DHT22;6548;49.996;8.238;2023-12-20T00:19:19;5.10;99.90
12967;DHT22;6548;49.996;8.238;2023-12-20T00:21:45;5.10;99.90
12967;DHT22;6548;49.996;8.238;2023-12-20T00:24:11;5.10;99.90
12967;DHT22;6548;49.996;8.238;2023-12-20T00:26:36;5.10;99.90
12967;DHT22;6548;49.996;8.238;2023-12-20T00:29:02;5.10;99.90
12967;DHT22;6548;49.996;8.238;2023-12-20T00:31:27;5.10;99.90
12967;DHT22;6548;49.996;8.238;2023-12-20T00:33:53;5.10;99.90
12967;DHT22;6548;49.996;8.238;2023-12-20T00:36:19;5.10;99.90
12967;DHT22;6548;49.996;8.238;2023-12-20T00:38:45;5.10;99.90
12967;DHT22;6548;49.996;8.238;2023-12-20T00:41:10;5.10;99.90
12967;DHT22;6548;49.996;8.238;2023-12-20T00:43:36;5.10;99.90
12967;DHT22;6548;49.996;8.238;2023-12-20T00:46:04;5.10;99.90
12967;DHT22;6548;49.996;8.238;2023-12-20T00:48:29;5.10;99.90
12967;DHT22;6548;49.996;8.238;2023-12-20T00:50:57;5.10;99.90
12967;DHT22;6548;49.996;8.238;2023-12-20T00:53:23;5.10;99.90
12967;DHT22;6548;49.996;8.238;2023-12-20T00:55:48;5.10;99.90
12967;DHT22;6548;49.996;8.238;2023-12-20T00:58:15;5.10;99.90
12967;DHT22;6548;49.996;8.238;2023-12-20T01:00:41;5.10;99.90
12967;DHT22;6548;49.996;8.238;2023-12-20T01:03:08;5.10;99.90
12967;DHT22;6548;49.996;8.238;2023-12-20T01:05:33;5.10;99.90
12967;DHT22;6548;49.996;8.238;2023-12-20T01:07:59;5.10;99.90
12967;DHT22;6548;49.996;8.238;2023-12-20T01:10:25;5.10;99.90
12967;DHT22;6548;49.996;8.238;2023-12-20T01:12:53;5.10;99.90
12967;DHT22;6548;49.996;8.238;2023-12-20T01:15:19;5.10;99.90
12967;DHT22;6548;49.996;8.238;2023-12-20T01:17:44;5.10;99.90
12967;DHT22;6548;49.996;8.238;2023-12-20T01:20:10;5.10;99.90
12967;DHT22;6548;49.996;8.238;2023-12-20T01:22:36;5.10;99.90
12967;DHT22;6548;49.996;8.238;2023-12-20T01:25:02;5.10;99.90
12967;DHT22;6548;49.996;8.238;2023-12-20T01:27:28;5.10;99.90
12967;DHT22;6548;49.996;8.238;2023-12-20T01:29:53;5.20;99.90
12967;DHT22;6548;49.996;8.238;2023-12-20T01:32:19;5.20;99.90
12967;DHT22;6548;49.996;8.238;2023-12-20T01:34:45;5.20;99.90
12967;DHT22;6548;49.996;8.238;2023-12-20T01:37:10;5.20;99.90
12967;DHT22;6548;49.996;8.238;2023-12-20T01:39:36;5.20;99.90
12967;DHT22;6548;49.996;8.238;2023-12-20T01:42:01;5.20;99.90
12967;DHT22;6548;49.996;8.238;2023-12-20T01:44:27;5.20;99.90
12967;DHT22;6548;49.996;8.238;2023-12-20T01:46:53;5.20;99.90
12967;DHT22;6548;49.996;8.238;2023-12-20T01:49:19;5.20;99.90
12967;DHT22;6548;49.996;8.238;2023-12-20T01:51:45;5.20;99.90
12967;DHT22;6548;49.996;8.238;2023-12-20T01:54:12;5.20;99.90
12967;DHT22;6548;49.996;8.238;2023-12-20T01:56:38;5.20;99.90
12967;DHT22;6548;49.996;8.238;2023-12-20T01:59:05;5.20;99.90
12967;DHT22;6548;49.996;8.238;2023-12-20T02:01:31;5.20;99.90
12967;DHT22;6548;49.996;8.238;2023-12-20T02:03:56;5.20;99.90
12967;DHT22;6548;49.996;8.238;2023-12-20T02:06:23;5.20;99.90
12967;DHT22;6548;49.996;8.238;2023-12-20T02:08:50;5.20;99.90
12967;DHT22;6548;49.996;8.238;2023-12-20T02:11:16;5.20;99.90
12967;DHT22;6548;49.996;8.238;2023-12-20T02:13:41;5.20;99.90
12967;DHT22;6548;49.996;8.238;2023-12-20T02:16:07;5.20;99.90
12967;DHT22;6548;49.996;8.238;2023-12-20T02:18:33;5.20;99.90
12967;DHT22;6548;49.996;8.238;2023-12-20T02:20:59;5.20;99.90
12967;DHT22;6548;49.996;8.238;2023-12-20T02:23:24;5.20;99.90
12967;DHT22;6548;49.996;8.238;2023-12-20T02:25:50;5.20;99.90
12967;DHT22;6548;49.996;8.238;2023-12-20T02:28:16;5.20;99.90
12967;DHT22;6548;49.996;8.238;2023-12-20T02:30:41;5.20;99.90
12967;DHT22;6548;49.996;8.238;2023-12-20T02:33:10;5.20;99.90
12967;DHT22;6548;49.996;8.238;2023-12-20T02:35:37;5.20;99.90
12967;DHT22;6548;49.996;8.238;2023-12-20T02:38:03;5.30;99.90
12967;DHT22;6548;49.996;8.238;2023-12-20T02:40:28;5.30;99.90
12967;DHT22;6548;49.996;8.238;2023-12-20T02:42:54;5.30;99.90
12967;DHT22;6548;49.996;8.238;2023-12-20T02:45:19;5.30;99.90
12967;DHT22;6548;49.996;8.238;2023-12-20T02:47:45;5.30;99.90
12967;DHT22;6548;49.996;8.238;2023-12-20T02:50:10;5.30;99.90
12967;DHT22;6548;49.996;8.238;2023-12-20T02:52:36;5.30;99.90
12967;DHT22;6548;49.996;8.238;2023-12-20T02:55:01;5.40;99.90
12967;DHT22;6548;49.996;8.238;2023-12-20T02:57:27;5.30;99.90
12967;DHT22;6548;49.996;8.238;2023-12-20T02:59:52;5.30;99.90
12967;DHT22;6548;49.996;8.238;2023-12-20T03:02:18;5.40;99.90
12967;DHT22;6548;49.996;8.238;2023-12-20T03:04:43;5.40;99.90
12967;DHT22;6548;49.996;8.238;2023-12-20T03:07:09;5.40;99.90
12967;DHT22;6548;49.996;8.238;2023-12-20T03:09:34;5.50;99.90
12967;DHT22;6548;49.996;8.238;2023-12-20T03:12:00;5.40;99.90
12967;DHT22;6548;49.996;8.238;2023-12-20T03:14:25;5.40;99.90
12967;DHT22;6548;49.996;8.238;2023-12-20T03:16:51;5.40;99.90
12967;DHT22;6548;49.996;8.238;2023-12-20T03:19:17;5.40;99.90
12967;DHT22;6548;49.996;8.238;2023-12-20T03:21:43;5.40;99.90
12967;DHT22;6548;49.996;8.238;2023-12-20T03:24:08;5.40;99.90
12967;DHT22;6548;49.996;8.238;2023-12-20T03:26:34;5.40;99.90
12967;DHT22;6548;49.996;8.238;2023-12-20T03:28:59;5.40;99.90
12967;DHT22;6548;49.996;8.238;2023-12-20T03:31:25;5.40;99.90
12967;DHT22;6548;49.996;8.238;2023-12-20T03:33:50;5.50;99.90
12967;DHT22;6548;49.996;8.238;2023-12-20T03:36:17;5.50;99.90
12967;DHT22;6548;49.996;8.238;2023-12-20T03:38:43;5.50;99.90
12967;DHT22;6548;49.996;8.238;2023-12-20T03:41:08;5.50;99.90
12967;DHT22;6548;49.996;8.238;2023-12-20T03:43:34;5.50;99.90
12967;DHT22;6548;49.996;8.238;2023-12-20T03:45:59;5.50;99.90
12967;DHT22;6548;49.996;8.238;2023-12-20T03:48:25;5.60;99.90
12967;DHT22;6548;49.996;8.238;2023-12-20T03:50:50;5.60;99.90
12967;DHT22;6548;49.996;8.238;2023-12-20T03:53:16;5.60;99.90
12967;DHT22;6548;49.996;8.238;2023-12-20T03:55:42;5.60;99.90
12967;DHT22;6548;49.996;8.238;2023-12-20T03:58:07;5.60;99.90
12967;DHT22;6548;49.996;8.238;2023-12-20T04:00:33;5.70;99.90
12967;DHT22;6548;49.996;8.238;2023-12-20T04:02:58;5.70;99.90
12967;DHT22;6548;49.996;8.238;2023-12-20T04:05:24;5.70;99.90
12967;DHT22;6548;49.996;8.238;2023-12-20T04:07:49;5.70;99.90
12967;DHT22;6548;49.996;8.238;2023-12-20T04:10:15;5.70;99.90
12967;DHT22;6548;49.996;8.238;2023-12-20T04:12:41;5.70;99.90
12967;DHT22;6548;49.996;8.238;2023-12-20T04:15:07;5.70;99.90
12967;DHT22;6548;49.996;8.238;2023-12-20T04:17:35;5.60;99.90
12967;DHT22;6548;49.996;8.238;2023-12-20T04:20:01;5.60;99.90
12967;DHT22;6548;49.996;8.238;2023-12-20T04:22:27;5.60;99.90
12967;DHT22;6548;49.996;8.238;2023-12-20T04:24:52;5.50;99.90
12967;DHT22;6548;49.996;8.238;2023-12-20T04:27:18;5.50;99.90
12967;DHT22;6548;49.996;8.238;2023-12-20T04:29:43;5.50;99.90
12967;DHT22;6548;49.996;8.238;2023-12-20T04:32:09;5.50;99.90
12967;DHT22;6548;49.996;8.238;2023-12-20T04:34:34;5.50;99.90
12967;DHT22;6548;49.996;8.238;2023-12-20T04:37:00;5.40;99.90
12967;DHT22;6548;49.996;8.238;2023-12-20T04:39:27;5.40;99.90
12967;DHT22;6548;49.996;8.238;2023-12-20T04:41:52;5.40;99.90
12967;DHT22;6548;49.996;8.238;2023-12-20T04:44:18;5.40;99.90
12967;DHT22;6548;49.996;8.238;2023-12-20T04:46:44;5.50;99.90
12967;DHT22;6548;49.996;8.238;2023-12-20T04:49:09;5.60;99.90
12967;DHT22;6548;49.996;8.238;2023-12-20T04:51:35;5.60;99.90
12967;DHT22;6548;49.996;8.238;2023-12-20T04:54:01;5.50;99.90
12967;DHT22;6548;49.996;8.238;2023-12-20T04:56:27;5.50;99.90
12967;DHT22;6548;49.996;8.238;2023-12-20T04:58:53;5.50;99.90
12967;DHT22;6548;49.996;8.238;2023-12-20T05:01:18;5.50;99.90
12967;DHT22;6548;49.996;8.238;2023-12-20T05:03:44;5.40;99.90
12967;DHT22;6548;49.996;8.238;2023-12-20T05:06:10;5.30;99.90
12967;DHT22;6548;49.996;8.238;2023-12-20T05:08:35;5.30;99.90
12967;DHT22;6548;49.996;8.238;2023-12-20T05:11:01;5.20;99.90
12967;DHT22;6548;49.996;8.238;2023-12-20T05:13:27;5.20;99.90
12967;DHT22;6548;49.996;8.238;2023-12-20T05:15:52;5.20;99.90
12967;DHT22;6548;49.996;8.238;2023-12-20T05:18:18;5.10;99.90
12967;DHT22;6548;49.996;8.238;2023-12-20T05:20:43;5.10;99.90
12967;DHT22;6548;49.996;8.238;2023-12-20T05:23:09;5.10;99.90
12967;DHT22;6548;49.996;8.238;2023-12-20T05:25:34;5.10;99.90
12967;DHT22;6548;49.996;8.238;2023-12-20T05:28:00;5.10;99.90
12967;DHT22;6548;49.996;8.238;2023-12-20T05:30:25;5.20;99.90
12967;DHT22;6548;49.996;8.238;2023-12-20T05:32:52;5.30;99.90
12967;DHT22;6548;49.996;8.238;2023-12-20T05:35:17;5.30;99.90
12967;DHT22;6548;49.996;8.238;2023-12-20T05:37:43;5.30;99.90
12967;DHT22;6548;49.996;8.238;2023-12-20T05:40:09;5.30;99.90
12967;DHT22;6548;49.996;8.238;2023-12-20T05:42:37;5.30;99.90
12967;DHT22;6548;49.996;8.238;2023-12-20T05:45:04;5.30;99.90
12967;DHT22;6548;49.996;8.238;2023-12-20T05:47:29;5.30;99.90
12967;DHT22;6548;49.996;8.238;2023-12-20T05:49:55;5.30;99.90
12967;DHT22;6548;49.996;8.238;2023-12-20T05:52:20;5.30;99.90
12967;DHT22;6548;49.996;8.238;2023-12-20T05:54:46;5.30;99.90
12967;DHT22;6548;49.996;8.238;2023-12-20T05:57:11;5.20;99.90
12967;DHT22;6548;49.996;8.238;2023-12-20T05:59:37;5.20;99.90
12967;DHT22;6548;49.996;8.238;2023-12-20T06:02:03;5.10;99.90
12967;DHT22;6548;49.996;8.238;2023-12-20T06:04:30;5.00;99.90
12967;DHT22;6548;49.996;8.238;2023-12-20T06:06:55;5.00;99.90
12967;DHT22;6548;49.996;8.238;2023-12-20T06:09:21;4.90;99.90
12967;DHT22;6548;49.996;8.238;2023-12-20T06:11:46;4.90;99.90
12967;DHT22;6548;49.996;8.238;2023-12-20T06:14:12;4.90;99.90
12967;DHT22;6548;49.996;8.238;2023-12-20T06:16:37;4.90;99.90
12967;DHT22;6548;49.996;8.238;2023-12-20T06:19:03;4.90;99.90
12967;DHT22;6548;49.996;8.238;2023-12-20T06:21:28;4.80;99.90
12967;DHT22;6548;49.996;8.238;2023-12-20T06:23:54;4.70;99.90
12967;DHT22;6548;49.996;8.238;2023-12-20T06:26:20;4.70;99.90
12967;DHT22;6548;49.996;8.238;2023-12-20T06:28:45;4.70;99.90
12967;DHT22;6548;49.996;8.238;2023-12-20T06:31:11;4.60;99.90
12967;DHT22;6548;49.996;8.238;2023-12-20T06:33:36;4.60;99.90
12967;DHT22;6548;49.996;8.238;2023-12-20T06:36:02;4.60;99.90
12967;DHT22;6548;49.996;8.238;2023-12-20T06:38:28;4.50;99.90
12967;DHT22;6548;49.996;8.238;2023-12-20T06:40:54;4.50;99.90
12967;DHT22;6548;49.996;8.238;2023-12-20T06:43:19;4.50;99.90
12967;DHT22;6548;49.996;8.238;2023-12-20T06:45:45;4.50;99.90
12967;DHT22;6548;49.996;8.238;2023-12-20T06:48:10;4.50;99.90
12967;DHT22;6548;49.996;8.238;2023-12-20T06:50:38;4.50;99.90
12967;DHT22;6548;49.996;8.238;2023-12-20T06:53:05;4.50;99.90
12967;DHT22;6548;49.996;8.238;2023-12-20T06:55:33;4.50;99.90
12967;DHT22;6548;49.996;8.238;2023-12-20T06:57:58;4.50;99.90
12967;DHT22;6548;49.996;8.238;2023-12-20T07:00:24;4.50;99.90
12967;DHT22;6548;49.996;8.238;2023-12-20T07:02:49;4.40;99.90
12967;DHT22;6548;49.996;8.238;2023-12-20T07:05:18;4.40;99.90
12967;DHT22;6548;49.996;8.238;2023-12-20T07:07:45;4.40;99.90
12967;DHT22;6548;49.996;8.238;2023-12-20T07:10:12;4.50;99.90
12967;DHT22;6548;49.996;8.238;2023-12-20T07:12:38;4.60;99.90
12967;DHT22;6548;49.996;8.238;2023-12-20T07:15:04;4.70;99.90
12967;DHT22;6548;49.996;8.238;2023-12-20T07:17:31;4.70;99.90
12967;DHT22;6548;49.996;8.238;2023-12-20T07:19:58;4.80;99.90
12967;DHT22;6548;49.996;8.238;2023-12-20T07:22:24;4.80;99.90
12967;DHT22;6548;49.996;8.238;2023-12-20T07:24:49;4.80;99.90
12967;DHT22;6548;49.996;8.238;2023-12-20T07:27:17;4.80;99.90
12967;DHT22;6548;49.996;8.238;2023-12-20T07:29:43;4.70;99.90
12967;DHT22;6548;49.996;8.238;2023-12-20T07:32:08;4.70;99.90
12967;DHT22;6548;49.996;8.238;2023-12-20T07:34:34;4.70;99.90
12967;DHT22;6548;49.996;8.238;2023-12-20T07:36:59;4.70;99.90
12967;DHT22;6548;49.996;8.238;2023-12-20T07:39:25;4.60;99.90
12967;DHT22;6548;49.996;8.238;2023-12-20T07:41:50;4.60;99.90
12967;DHT22;6548;49.996;8.238;2023-12-20T07:44:16;4.60;99.90
12967;DHT22;6548;49.996;8.238;2023-12-20T07:46:41;4.70;99.90
12967;DHT22;6548;49.996;8.238;2023-12-20T07:49:07;4.70;99.90
12967;DHT22;6548;49.996;8.238;2023-12-20T07:51:33;4.80;99.90
12967;DHT22;6548;49.996;8.238;2023-12-20T07:53:59;4.80;99.90
12967;DHT22;6548;49.996;8.238;2023-12-20T07:56:24;4.90;99.90
12967;DHT22;6548;49.996;8.238;2023-12-20T07:58:50;5.00;99.90
12967;DHT22;6548;49.996;8.238;2023-12-20T08:01:16;5.00;99.90
12967;DHT22;6548;49.996;8.238;2023-12-20T08:03:43;5.10;99.90
12967;DHT22;6548;49.996;8.238;2023-12-20T08:06:09;5.10;99.90
12967;DHT22;6548;49.996;8.238;2023-12-20T08:08:34;5.20;99.90
12967;DHT22;6548;49.996;8.238;2023-12-20T08:11:00;5.30;99.90
12967;DHT22;6548;49.996;8.238;2023-12-20T08:13:26;5.40;99.90
12967;DHT22;6548;49.996;8.238;2023-12-20T08:15:55;5.40;99.90
12967;DHT22;6548;49.996;8.238;2023-12-20T08:18:21;5.50;99.90
12967;DHT22;6548;49.996;8.238;2023-12-20T08:20:47;5.60;99.90
12967;DHT22;6548;49.996;8.238;2023-12-20T08:23:13;5.60;99.90
12967;DHT22;6548;49.996;8.238;2023-12-20T08:25:39;5.70;99.90
12967;DHT22;6548;49.996;8.238;2023-12-20T08:28:04;5.80;99.90
12967;DHT22;6548;49.996;8.238;2023-12-20T08:30:30;5.80;99.90
12967;DHT22;6548;49.996;8.238;2023-12-20T08:32:56;5.80;99.90
12967;DHT22;6548;49.996;8.238;2023-12-20T08:35:22;5.90;99.90
12967;DHT22;6548;49.996;8.238;2023-12-20T08:37:47;5.90;99.90
12967;DHT22;6548;49.996;8.238;2023-12-20T08:40:13;5.90;99.90
12967;DHT22;6548;49.996;8.238;2023-12-20T08:42:39;5.90;99.90
12967;DHT22;6548;49.996;8.238;2023-12-20T08:45:04;5.90;99.90
12967;DHT22;6548;49.996;8.238;2023-12-20T08:47:30;5.90;99.90
12967;DHT22;6548;49.996;8.238;2023-12-20T08:49:56;5.90;99.90
12967;DHT22;6548;49.996;8.238;2023-12-20T08:52:23;6.00;99.90
12967;DHT22;6548;49.996;8.238;2023-12-20T08:54:50;6.00;99.90
12967;DHT22;6548;49.996;8.238;2023-12-20T08:57:18;6.00;99.90
12967;DHT22;6548;49.996;8.238;2023-12-20T08:59:43;6.00;99.90
12967;DHT22;6548;49.996;8.238;2023-12-20T09:02:09;6.00;99.90
12967;DHT22;6548;49.996;8.238;2023-12-20T09:04:35;6.00;99.90
12967;DHT22;6548;49.996;8.238;2023-12-20T09:07:00;6.10;99.90
12967;DHT22;6548;49.996;8.238;2023-12-20T09:09:26;6.10;99.90
12967;DHT22;6548;49.996;8.238;2023-12-20T09:11:52;6.10;99.90
12967;DHT22;6548;49.996;8.238;2023-12-20T09:14:17;6.40;99.90
12967;DHT22;6548;49.996;8.238;2023-12-20T09:16:43;6.50;99.90
12967;DHT22;6548;49.996;8.238;2023-12-20T09:19:08;6.30;99.90
12967;DHT22;6548;49.996;8.238;2023-12-20T09:21:35;6.30;99.90
12967;DHT22;6548;49.996;8.238;2023-12-20T09:24:01;6.30;99.90
12967;DHT22;6548;49.996;8.238;2023-12-20T09:26:26;6.30;99.90
12967;DHT22;6548;49.996;8.238;2023-12-20T09:28:52;6.30;99.90
12967;DHT22;6548;49.996;8.238;2023-12-20T09:31:17;6.40;99.90
12967;DHT22;6548;49.996;8.238;2023-12-20T09:33:43;6.40;99.90
12967;DHT22;6548;49.996;8.238;2023-12-20T09:36:08;6.40;99.90
12967;DHT22;6548;49.996;8.238;2023-12-20T09:38:34;6.40;99.90
12967;DHT22;6548;49.996;8.238;2023-12-20T09:41:00;6.50;99.90
12967;DHT22;6548;49.996;8.238;2023-12-20T09:43:27;6.50;99.90
12967;DHT22;6548;49.996;8.238;2023-12-20T09:45:59;6.50;99.90
12967;DHT22;6548;49.996;8.238;2023-12-20T09:48:27;6.50;99.90
12967;DHT22;6548;49.996;8.238;2023-12-20T09:50:54;6.50;99.90
12967;DHT22;6548;49.996;8.238;2023-12-20T09:53:19;6.50;99.90
12967;DHT22;6548;49.996;8.238;2023-12-20T09:55:46;6.40;99.90
12967;DHT22;6548;49.996;8.238;2023-12-20T09:58:12;6.40;99.90
12967;DHT22;6548;49.996;8.238;2023-12-20T10:00:37;6.50;99.90
12967;DHT22;6548;49.996;8.238;2023-12-20T10:03:03;6.50;99.90
12967;DHT22;6548;49.996;8.238;2023-12-20T10:05:32;6.50;99.90
12967;DHT22;6548;49.996;8.238;2023-12-20T10:07:58;6.60;99.90
12967;DHT22;6548;49.996;8.238;2023-12-20T10:10:25;6.60;99.90
12967;DHT22;6548;49.996;8.238;2023-12-20T10:13:03;6.70;99.90
12967;DHT22;6548;49.996;8.238;2023-12-20T10:15:29;6.80;99.90
12967;DHT22;6548;49.996;8.238;2023-12-20T10:17:56;6.90;99.90
12967;DHT22;6548;49.996;8.238;2023-12-20T10:20:22;6.90;99.90
12967;DHT22;6548;49.996;8.238;2023-12-20T10:22:48;7.00;99.90
12967;DHT22;6548;49.996;8.238;2023-12-20T10:25:14;7.00;99.90
12967;DHT22;6548;49.996;8.238;2023-12-20T10:27:40;7.10;99.90
12967;DHT22;6548;49.996;8.238;2023-12-20T10:30:06;7.00;99.90
12967;DHT22;6548;49.996;8.238;2023-12-20T10:32:31;7.20;99.90
12967;DHT22;6548;49.996;8.238;2023-12-20T10:34:57;7.30;99.90
12967;DHT22;6548;49.996;8.238;2023-12-20T10:37:24;7.40;99.90
12967;DHT22;6548;49.996;8.238;2023-12-20T10:39:51;7.40;99.90
12967;DHT22;6548;49.996;8.238;2023-12-20T10:42:21;7.50;99.90
12967;DHT22;6548;49.996;8.238;2023-12-20T10:44:49;7.60;99.90
12967;DHT22;6548;49.996;8.238;2023-12-20T10:47:15;7.80;99.90
12967;DHT22;6548;49.996;8.238;2023-12-20T10:49:41;7.80;99.90
12967;DHT22;6548;49.996;8.238;2023-12-20T10:52:07;7.70;99.90
12967;DHT22;6548;49.996;8.238;2023-12-20T10:54:34;7.70;99.90
12967;DHT22;6548;49.996;8.238;2023-12-20T10:57:00;7.70;99.90
12967;DHT22;6548;49.996;8.238;2023-12-20T10:59:27;8.00;99.90
12967;DHT22;6548;49.996;8.238;2023-12-20T11:01:56;8.10;99.90
12967;DHT22;6548;49.996;8.238;2023-12-20T11:04:28;8.30;99.90
12967;DHT22;6548;49.996;8.238;2023-12-20T11:07:07;8.50;99.90
12967;DHT22;6548;49.996;8.238;2023-12-20T11:09:36;8.60;99.90
12967;DHT22;6548;49.996;8.238;2023-12-20T11:12:25;8.50;99.90
12967;DHT22;6548;49.996;8.238;2023-12-20T11:14:54;8.20;99.90
12967;DHT22;6548;49.996;8.238;2023-12-20T11:17:28;8.00;99.90
12967;DHT22;6548;49.996;8.238;2023-12-20T11:22:22;7.90;99.90
12967;DHT22;6548;49.996;8.238;2023-12-20T11:24:51;7.80;99.90
12967;DHT22;6548;49.996;8.238;2023-12-20T11:27:19;7.80;99.90
12967;DHT22;6548;49.996;8.238;2023-12-20T11:29:52;7.80;99.90
12967;DHT22;6548;49.996;8.238;2023-12-20T11:34:57;7.80;99.90
12967;DHT22;6548;49.996;8.238;2023-12-20T11:37:29;7.60;99.90
12967;DHT22;6548;49.996;8.238;2023-12-20T11:39:56;7.50;99.90
12967;DHT22;6548;49.996;8.238;2023-12-20T11:42:22;7.40;99.90
12967;DHT22;6548;49.996;8.238;2023-12-20T11:44:47;7.40;99.90
12967;DHT22;6548;49.996;8.238;2023-12-20T11:47:13;7.30;99.90
12967;DHT22;6548;49.996;8.238;2023-12-20T11:49:41;7.30;99.90
12967;DHT22;6548;49.996;8.238;2023-12-20T11:52:06;7.30;99.90
12967;DHT22;6548;49.996;8.238;2023-12-20T11:54:32;7.30;99.90
12967;DHT22;6548;49.996;8.238;2023-12-20T11:56:58;7.30;99.90
12967;DHT22;6548;49.996;8.238;2023-12-20T11:59:23;7.30;99.90
12967;DHT22;6548;49.996;8.238;2023-12-20T12:01:50;7.20;99.90
12967;DHT22;6548;49.996;8.238;2023-12-20T12:04:15;7.20;99.90
12967;DHT22;6548;49.996;8.238;2023-12-20T12:06:43;7.30;99.90
12967;DHT22;6548;49.996;8.238;2023-12-20T12:09:08;7.60;99.90
12967;DHT22;6548;49.996;8.238;2023-12-20T12:11:34;7.80;99.90
12967;DHT22;6548;49.996;8.238;2023-12-20T12:14:00;7.90;99.90
12967;DHT22;6548;49.996;8.238;2023-12-20T12:16:26;8.00;99.90
12967;DHT22;6548;49.996;8.238;2023-12-20T12:18:56;8.10;99.90
12967;DHT22;6548;49.996;8.238;2023-12-20T12:21:22;8.20;99.90
12967;DHT22;6548;49.996;8.238;2023-12-20T12:23:48;8.30;99.90
12967;DHT22;6548;49.996;8.238;2023-12-20T12:26:13;8.20;99.90
12967;DHT22;6548;49.996;8.238;2023-12-20T12:28:42;8.10;99.90
12967;DHT22;6548;49.996;8.238;2023-12-20T12:31:12;8.10;99.90
12967;DHT22;6548;49.996;8.238;2023-12-20T12:33:40;8.00;99.90
12967;DHT22;6548;49.996;8.238;2023-12-20T12:36:07;7.90;99.90
12967;DHT22;6548;49.996;8.238;2023-12-20T12:38:33;8.00;99.90
12967;DHT22;6548;49.996;8.238;2023-12-20T12:41:00;8.20;99.90
12967;DHT22;6548;49.996;8.238;2023-12-20T12:43:25;8.10;99.90
12967;DHT22;6548;49.996;8.238;2023-12-20T12:45:51;8.10;99.90
12967;DHT22;6548;49.996;8.238;2023-12-20T12:48:16;8.10;99.90
12967;DHT22;6548;49.996;8.238;2023-12-20T12:50:42;8.00;99.90
12967;DHT22;6548;49.996;8.238;2023-12-20T12:53:08;8.00;99.90
12967;DHT22;6548;49.996;8.238;2023-12-20T12:55:34;8.00;99.90
12967;DHT22;6548;49.996;8.238;2023-12-20T12:58:00;8.00;99.90
12967;DHT22;6548;49.996;8.238;2023-12-20T13:00:26;8.00;99.90
12967;DHT22;6548;49.996;8.238;2023-12-20T13:02:51;8.00;99.90
12967;DHT22;6548;49.996;8.238;2023-12-20T13:05:17;8.10;99.90
12967;DHT22;6548;49.996;8.238;2023-12-20T13:07:43;8.20;99.90
12967;DHT22;6548;49.996;8.238;2023-12-20T13:10:10;8.30;99.90
12967;DHT22;6548;49.996;8.238;2023-12-20T13:12:36;8.30;99.90
12967;DHT22;6548;49.996;8.238;2023-12-20T13:15:02;8.40;99.90
12967;DHT22;6548;49.996;8.238;2023-12-20T13:17:29;8.40;99.90
12967;DHT22;6548;49.996;8.238;2023-12-20T13:19:55;8.40;99.90
12967;DHT22;6548;49.996;8.238;2023-12-20T13:22:20;8.40;99.90
12967;DHT22;6548;49.996;8.238;2023-12-20T13:24:46;8.30;99.90
12967;DHT22;6548;49.996;8.238;2023-12-20T13:27:11;8.40;99.90
12967;DHT22;6548;49.996;8.238;2023-12-20T13:29:37;8.40;99.90
12967;DHT22;6548;49.996;8.238;2023-12-20T13:32:02;8.40;99.90
12967;DHT22;6548;49.996;8.238;2023-12-20T13:34:29;8.30;99.90
12967;DHT22;6548;49.996;8.238;2023-12-20T13:36:54;8.10;99.90
12967;DHT22;6548;49.996;8.238;2023-12-20T13:39:20;8.10;99.90
12967;DHT22;6548;49.996;8.238;2023-12-20T13:41:46;8.00;99.90
12967;DHT22;6548;49.996;8.238;2023-12-20T13:44:12;8.00;99.90
12967;DHT22;6548;49.996;8.238;2023-12-20T13:46:38;8.10;99.90
12967;DHT22;6548;49.996;8.238;2023-12-20T13:49:04;8.20;99.90
12967;DHT22;6548;49.996;8.238;2023-12-20T13:51:30;8.20;99.90
12967;DHT22;6548;49.996;8.238;2023-12-20T13:53:55;8.30;99.90
12967;DHT22;6548;49.996;8.238;2023-12-20T13:56:21;8.30;99.90
12967;DHT22;6548;49.996;8.238;2023-12-20T13:58:48;8.30;99.90
12967;DHT22;6548;49.996;8.238;2023-12-20T14:01:14;8.30;99.90
12967;DHT22;6548;49.996;8.238;2023-12-20T14:03:40;8.20;99.90
12967;DHT22;6548;49.996;8.238;2023-12-20T14:06:06;8.10;99.90
12967;DHT22;6548;49.996;8.238;2023-12-20T14:08:32;8.00;99.90
12967;DHT22;6548;49.996;8.238;2023-12-20T14:10:57;8.00;99.90
12967;DHT22;6548;49.996;8.238;2023-12-20T14:13:23;8.00;99.90
12967;DHT22;6548;49.996;8.238;2023-12-20T14:15:48;7.90;99.90
12967;DHT22;6548;49.996;8.238;2023-12-20T14:18:14;7.80;99.90
12967;DHT22;6548;49.996;8.238;2023-12-20T14:20:41;7.80;99.90
12967;DHT22;6548;49.996;8.238;2023-12-20T14:23:08;7.70;99.90
12967;DHT22;6548;49.996;8.238;2023-12-20T14:25:35;7.70;99.90
12967;DHT22;6548;49.996;8.238;2023-12-20T14:28:03;7.70;99.90
12967;DHT22;6548;49.996;8.238;2023-12-20T14:30:28;7.70;99.90
12967;DHT22;6548;49.996;8.238;2023-12-20T14:32:54;7.60;99.90
12967;DHT22;6548;49.996;8.238;2023-12-20T14:35:19;7.60;99.90
12967;DHT22;6548;49.996;8.238;2023-12-20T14:37:45;7.60;99.90
12967;DHT22;6548;49.996;8.238;2023-12-20T14:40:11;7.50;99.90
12967;DHT22;6548;49.996;8.238;2023-12-20T14:42:46;7.50;99.90
12967;DHT22;6548;49.996;8.238;2023-12-20T14:45:12;7.50;99.90
12967;DHT22;6548;49.996;8.238;2023-12-20T14:47:41;7.50;99.90
12967;DHT22;6548;49.996;8.238;2023-12-20T14:50:07;7.40;99.90
12967;DHT22;6548;49.996;8.238;2023-12-20T14:52:33;7.40;99.90
12967;DHT22;6548;49.996;8.238;2023-12-20T14:55:00;7.40;99.90
12967;DHT22;6548;49.996;8.238;2023-12-20T14:57:27;7.30;99.90
12967;DHT22;6548;49.996;8.238;2023-12-20T14:59:54;7.30;99.90
12967;DHT22;6548;49.996;8.238;2023-12-20T15:02:20;7.30;99.90
12967;DHT22;6548;49.996;8.238;2023-12-20T15:04:45;7.30;99.90
12967;DHT22;6548;49.996;8.238;2023-12-20T15:07:11;7.30;99.90
12967;DHT22;6548;49.996;8.238;2023-12-20T15:09:37;7.20;99.90
12967;DHT22;6548;49.996;8.238;2023-12-20T15:12:02;7.20;99.90
12967;DHT22;6548;49.996;8.238;2023-12-20T15:14:28;7.20;99.90
12967;DHT22;6548;49.996;8.238;2023-12-20T15:16:54;7.20;99.90
12967;DHT22;6548;49.996;8.238;2023-12-20T15:19:21;7.10;99.90
12967;DHT22;6548;49.996;8.238;2023-12-20T15:21:46;7.10;99.90
12967;DHT22;6548;49.996;8.238;2023-12-20T15:24:12;7.10;99.90
12967;DHT22;6548;49.996;8.238;2023-12-20T15:26:42;7.10;99.90
12967;DHT22;6548;49.996;8.238;2023-12-20T15:29:09;7.10;99.90
12967;DHT22;6548;49.996;8.238;2023-12-20T15:31:47;7.00;99.90
12967;DHT22;6548;49.996;8.238;2023-12-20T15:34:14;7.00;99.90
12967;DHT22;6548;49.996;8.238;2023-12-20T15:36:41;7.00;99.90
12967;DHT22;6548;49.996;8.238;2023-12-20T15:39:07;7.00;99.90
12967;DHT22;6548;49.996;8.238;2023-12-20T15:41:35;7.00;99.90
12967;DHT22;6548;49.996;8.238;2023-12-20T15:44:01;7.00;99.90
12967;DHT22;6548;49.996;8.238;2023-12-20T15:46:26;7.00;99.90
12967;DHT22;6548;49.996;8.238;2023-12-20T15:48:52;7.00;99.90
12967;DHT22;6548;49.996;8.238;2023-12-20T15:51:20;7.00;99.90
12967;DHT22;6548;49.996;8.238;2023-12-20T15:53:46;7.00;99.90
12967;DHT22;6548;49.996;8.238;2023-12-20T15:56:11;6.90;99.90
12967;DHT22;6548;49.996;8.238;2023-12-20T15:58:37;6.90;99.90
12967;DHT22;6548;49.996;8.238;2023-12-20T16:01:03;6.90;99.90